createdAt,value
2023-01-29T00:00:10.352Z,1.40
2023-01-29T00:02:38.675Z,1.40
2023-01-29T00:05:26.606Z,1.30
2023-01-29T00:07:55.973Z,1.30
2023-01-29T00:10:24.238Z,1.30
2023-01-29T00:12:52.962Z,1.30
2023-01-29T00:15:21.434Z,1.40
2023-01-29T00:17:49.507Z,1.50
2023-01-29T00:20:19.526Z,1.50
2023-01-29T00:22:47.619Z,1.40
2023-01-29T00:25:15.663Z,1.70
2023-01-29T00:27:44.571Z,1.40
2023-01-29T00:30:13.829Z,1.70
2023-01-29T00:32:42.010Z,1.70
2023-01-29T00:35:11.004Z,1.50
2023-01-29T00:37:40.332Z,1.50
2023-01-29T00:40:10.394Z,1.40
2023-01-29T00:42:56.369Z,1.30
2023-01-29T00:45:24.383Z,1.50
2023-01-29T00:47:52.393Z,1.60
2023-01-29T00:50:20.667Z,1.80
2023-01-29T00:52:51.712Z,1.80
2023-01-29T00:55:19.948Z,1.80
2023-01-29T00:57:48.021Z,1.70
2023-01-29T01:00:19.654Z,1.60
2023-01-29T01:03:05.311Z,1.60
2023-01-29T01:05:33.562Z,1.30
2023-01-29T01:08:03.078Z,1.10
2023-01-29T01:10:32.834Z,1.00
2023-01-29T01:13:03.479Z,1.00
2023-01-29T01:15:34.889Z,0.90
2023-01-29T01:18:04.820Z,0.90
2023-01-29T01:20:36.174Z,0.90
2023-01-29T01:23:06.028Z,0.90
2023-01-29T01:25:34.187Z,0.80
2023-01-29T01:28:02.254Z,0.90
2023-01-29T01:30:30.320Z,0.90
2023-01-29T01:32:58.422Z,0.90
2023-01-29T01:35:26.396Z,0.80
2023-01-29T01:37:54.404Z,0.80
2023-01-29T01:40:26.227Z,0.70
2023-01-29T01:42:56.970Z,0.80
2023-01-29T01:45:29.510Z,0.90
2023-01-29T01:48:01.913Z,0.90
2023-01-29T01:50:36.437Z,0.90
2023-01-29T01:53:10.203Z,0.80
2023-01-29T01:55:45.261Z,0.80
2023-01-29T01:58:18.953Z,0.90
2023-01-29T02:00:47.086Z,0.90
2023-01-29T02:03:32.736Z,0.80
2023-01-29T02:06:19.298Z,0.90
2023-01-29T02:09:13.461Z,0.80
2023-01-29T02:11:42.994Z,0.70
2023-01-29T02:14:11.849Z,0.70
2023-01-29T02:16:40.272Z,0.70
2023-01-29T02:19:18.114Z,0.80
2023-01-29T02:22:30.992Z,0.80
2023-01-29T02:25:13.381Z,0.70
2023-01-29T02:28:33.409Z,0.70
2023-01-29T02:31:09.631Z,0.70
2023-01-29T02:33:49.561Z,0.80
2023-01-29T02:36:32.500Z,0.70
2023-01-29T02:39:11.760Z,0.80
2023-01-29T02:41:46.316Z,0.70
2023-01-29T02:44:27.435Z,0.60
2023-01-29T02:47:02.704Z,0.60
2023-01-29T02:49:36.954Z,0.60
2023-01-29T02:52:13.005Z,0.60
2023-01-29T02:54:45.608Z,0.60
2023-01-29T02:57:20.140Z,0.50
2023-01-29T02:59:55.915Z,0.50
2023-01-29T03:02:33.421Z,0.50
2023-01-29T03:05:05.198Z,0.60
2023-01-29T03:07:46.245Z,1.00
2023-01-29T03:10:20.985Z,1.20
2023-01-29T03:13:00.165Z,1.40
2023-01-29T03:15:39.010Z,1.10
2023-01-29T03:18:12.829Z,0.90
2023-01-29T03:20:48.212Z,0.80
2023-01-29T03:23:23.653Z,0.80
2023-01-29T03:26:12.383Z,0.80
2023-01-29T03:29:00.694Z,0.70
2023-01-29T03:31:49.266Z,0.60
2023-01-29T03:34:24.575Z,0.50
2023-01-29T03:36:57.654Z,0.30
2023-01-29T03:39:29.061Z,0.20
2023-01-29T03:42:03.728Z,0.20
2023-01-29T03:44:40.245Z,0.40
2023-01-29T03:47:21.300Z,0.40
2023-01-29T03:49:58.854Z,0.40
2023-01-29T03:52:34.838Z,0.30
2023-01-29T03:55:12.351Z,0.40
2023-01-29T03:57:45.443Z,0.40
2023-01-29T04:00:19.623Z,0.40
2023-01-29T04:02:57.280Z,0.50
2023-01-29T04:05:31.471Z,0.40
2023-01-29T04:08:06.338Z,0.30
2023-01-29T04:10:37.179Z,0.30
2023-01-29T04:13:11.028Z,0.30
2023-01-29T04:15:45.357Z,0.40
2023-01-29T04:18:15.009Z,0.50
2023-01-29T04:20:44.041Z,0.30
2023-01-29T04:23:22.572Z,0.10
2023-01-29T04:26:06.876Z,0.10
2023-01-29T04:28:55.066Z,-0.10
2023-01-29T04:31:27.595Z,-0.20
2023-01-29T04:34:13.852Z,-0.20
2023-01-29T04:36:57.120Z,-0.30
2023-01-29T04:39:31.933Z,-0.20
2023-01-29T04:42:09.674Z,-0.40
2023-01-29T04:44:44.638Z,-0.50
2023-01-29T04:47:23.339Z,-0.50
2023-01-29T04:50:04.246Z,-0.50
2023-01-29T04:52:46.684Z,-0.60
2023-01-29T04:55:22.780Z,-0.60
2023-01-29T04:57:57.933Z,-0.60
2023-01-29T05:00:32.180Z,-0.60
2023-01-29T05:03:01.413Z,-0.60
2023-01-29T05:05:31.850Z,-0.40
2023-01-29T05:08:00.808Z,-0.50
2023-01-29T05:10:29.068Z,-0.60
2023-01-29T05:13:02.498Z,-0.50
2023-01-29T05:15:36.900Z,-0.60
2023-01-29T05:18:08.685Z,-0.60
2023-01-29T05:20:41.106Z,-0.50
2023-01-29T05:23:12.179Z,-0.40
2023-01-29T05:25:40.122Z,-0.30
2023-01-29T05:28:17.038Z,-0.30
2023-01-29T05:30:47.073Z,-0.40
2023-01-29T05:33:19.861Z,-0.30
2023-01-29T05:35:50.027Z,-0.30
2023-01-29T05:38:21.358Z,-0.20
2023-01-29T05:40:49.523Z,-0.10
2023-01-29T05:43:20.662Z,-0.30
2023-01-29T05:45:54.609Z,-0.70
2023-01-29T05:48:22.899Z,-0.90
2023-01-29T05:50:52.858Z,-0.80
2023-01-29T05:53:21.186Z,-0.90
2023-01-29T05:55:49.661Z,-1.00
2023-01-29T05:58:21.607Z,-1.10
2023-01-29T06:00:49.627Z,-1.20
2023-01-29T06:03:17.807Z,-1.30
2023-01-29T06:05:45.825Z,-1.20
2023-01-29T06:08:15.212Z,-1.20
2023-01-29T06:10:43.180Z,-1.20
2023-01-29T06:13:11.154Z,-1.20
2023-01-29T06:15:41.677Z,-1.20
2023-01-29T06:18:09.679Z,-1.20
2023-01-29T06:20:38.566Z,-1.00
2023-01-29T06:23:06.693Z,-0.90
2023-01-29T06:25:36.383Z,-0.80
2023-01-29T06:28:04.802Z,-0.70
2023-01-29T06:30:32.922Z,-0.60
2023-01-29T06:33:01.607Z,-0.80
2023-01-29T06:35:29.799Z,-0.80
2023-01-29T06:37:58.093Z,-0.80
2023-01-29T06:40:26.142Z,-0.70
2023-01-29T06:42:55.512Z,-0.60
2023-01-29T06:45:24.002Z,-0.40
2023-01-29T06:47:52.603Z,-0.40
2023-01-29T06:50:20.781Z,-0.80
2023-01-29T06:52:48.746Z,-0.80
2023-01-29T06:55:17.034Z,-0.70
2023-01-29T06:57:44.978Z,-0.80
2023-01-29T07:00:17.284Z,-0.80
2023-01-29T07:02:45.408Z,-0.80
2023-01-29T07:05:13.381Z,-0.80
2023-01-29T07:07:41.418Z,-0.90
2023-01-29T07:10:11.183Z,-0.90
2023-01-29T07:12:39.146Z,-0.70
2023-01-29T07:15:08.909Z,-0.70
2023-01-29T07:17:38.205Z,-0.70
2023-01-29T07:20:08.109Z,-0.70
2023-01-29T07:22:36.932Z,-0.60
2023-01-29T07:25:06.169Z,-0.50
2023-01-29T07:27:36.644Z,-0.50
2023-01-29T07:30:05.879Z,-0.50
2023-01-29T07:32:33.881Z,-0.30
2023-01-29T07:35:03.183Z,-0.40
2023-01-29T07:37:31.155Z,-0.30
2023-01-29T07:39:59.142Z,-0.40
2023-01-29T07:42:27.531Z,-0.30
2023-01-29T07:44:55.530Z,-0.40
2023-01-29T07:47:23.524Z,-0.40
2023-01-29T07:49:51.519Z,-0.30
2023-01-29T07:52:22.387Z,-0.20
2023-01-29T07:54:50.587Z,-0.20
2023-01-29T07:57:18.640Z,-0.10
2023-01-29T07:59:46.694Z,-0.20
2023-01-29T08:02:15.078Z,-0.10
2023-01-29T08:04:43.203Z,-0.20
2023-01-29T08:07:11.288Z,-0.30
2023-01-29T08:09:40.912Z,-0.10
2023-01-29T08:12:08.986Z,-0.20
2023-01-29T08:14:36.966Z,-0.20
2023-01-29T08:17:05.052Z,-0.10
2023-01-29T08:19:33.352Z,0.00
2023-01-29T08:22:01.745Z,-0.10
2023-01-29T08:24:41.529Z,-0.10
2023-01-29T08:27:19.150Z,-0.10
2023-01-29T08:29:47.137Z,0.10
2023-01-29T08:32:15.114Z,-0.10
2023-01-29T08:34:43.052Z,-0.20
2023-01-29T08:37:11.009Z,-0.10
2023-01-29T08:39:39.095Z,-0.10
2023-01-29T08:42:07.205Z,0.00
2023-01-29T08:44:36.746Z,0.00
2023-01-29T08:47:05.008Z,0.00
2023-01-29T08:49:33.955Z,0.00
2023-01-29T08:52:03.190Z,0.10
2023-01-29T08:54:31.979Z,0.30
2023-01-29T08:57:00.029Z,0.40
2023-01-29T08:59:28.039Z,0.60
2023-01-29T09:01:57.423Z,0.60
2023-01-29T09:04:25.828Z,0.60
2023-01-29T09:06:53.877Z,0.60
2023-01-29T09:09:22.603Z,0.60
2023-01-29T09:11:50.661Z,0.80
2023-01-29T09:14:18.875Z,0.60
2023-01-29T09:16:46.876Z,0.40
2023-01-29T09:19:16.238Z,0.40
2023-01-29T09:21:44.609Z,0.50
2023-01-29T09:24:13.842Z,0.50
2023-01-29T09:26:42.057Z,0.20
2023-01-29T09:29:11.701Z,0.50
2023-01-29T09:31:39.764Z,0.80
2023-01-29T09:34:07.845Z,0.90
2023-01-29T09:36:37.160Z,0.80
2023-01-29T09:39:05.782Z,0.80
2023-01-29T09:41:49.305Z,0.50
2023-01-29T09:44:28.491Z,0.70
2023-01-29T09:46:57.163Z,0.80
2023-01-29T09:49:29.255Z,0.40
2023-01-29T09:52:04.709Z,0.40
2023-01-29T09:54:40.941Z,0.70
2023-01-29T09:57:18.839Z,0.80
2023-01-29T09:59:46.812Z,0.70
2023-01-29T10:02:34.795Z,0.60
2023-01-29T10:05:21.393Z,0.50
2023-01-29T10:08:50.888Z,0.50
2023-01-29T10:11:34.066Z,0.50
2023-01-29T10:14:15.802Z,0.50
2023-01-29T10:17:00.334Z,0.90
2023-01-29T10:19:47.152Z,1.00
2023-01-29T10:22:40.320Z,1.00
2023-01-29T10:25:15.762Z,0.50
2023-01-29T10:27:54.081Z,0.40
2023-01-29T10:30:34.668Z,0.30
2023-01-29T10:33:05.122Z,0.60
2023-01-29T10:35:37.460Z,0.90
2023-01-29T10:38:29.942Z,1.00
2023-01-29T10:41:12.882Z,0.90
2023-01-29T10:43:52.882Z,1.10
2023-01-29T10:46:36.789Z,1.10
2023-01-29T10:49:19.986Z,1.20
2023-01-29T10:52:11.168Z,1.40
2023-01-29T10:55:02.379Z,2.00
2023-01-29T10:57:53.859Z,2.20
2023-01-29T11:00:25.615Z,2.20
2023-01-29T11:02:54.131Z,1.70
2023-01-29T11:05:30.979Z,1.60
2023-01-29T11:08:06.093Z,1.80
2023-01-29T11:10:43.933Z,2.10
2023-01-29T11:13:16.584Z,2.30
2023-01-29T11:15:45.160Z,2.20
2023-01-29T11:18:15.856Z,2.00
2023-01-29T11:20:46.057Z,1.50
2023-01-29T11:23:28.747Z,1.80
2023-01-29T11:25:58.702Z,2.00
2023-01-29T11:28:42.982Z,2.10
2023-01-29T11:31:20.169Z,2.00
2023-01-29T11:33:48.902Z,2.10
2023-01-29T11:36:33.952Z,2.50
2023-01-29T11:39:20.322Z,2.40
2023-01-29T11:41:57.642Z,1.90
2023-01-29T11:44:33.340Z,2.10
2023-01-29T11:47:14.214Z,2.20
2023-01-29T11:49:47.755Z,1.90
2023-01-29T11:52:18.717Z,2.00
2023-01-29T11:54:52.095Z,2.10
2023-01-29T11:57:28.566Z,2.40
2023-01-29T12:00:02.632Z,2.80
2023-01-29T12:02:38.431Z,2.80
2023-01-29T12:05:16.336Z,2.60
2023-01-29T12:07:46.252Z,2.70
2023-01-29T12:10:32.414Z,3.40
2023-01-29T12:13:07.407Z,4.10
2023-01-29T12:15:37.633Z,3.80
2023-01-29T12:18:16.263Z,3.50
2023-01-29T12:20:49.645Z,3.40
2023-01-29T12:23:32.207Z,3.00
2023-01-29T12:26:05.158Z,2.90
2023-01-29T12:28:47.782Z,3.90
2023-01-29T12:31:34.394Z,4.80
2023-01-29T12:34:12.173Z,5.70
2023-01-29T12:36:47.042Z,5.70
2023-01-29T12:39:18.189Z,5.40
2023-01-29T12:41:52.371Z,5.20
2023-01-29T12:44:26.890Z,5.30
2023-01-29T12:47:03.990Z,4.80
2023-01-29T12:49:36.688Z,4.60
2023-01-29T12:52:13.449Z,5.10
2023-01-29T12:54:50.199Z,5.30
2023-01-29T12:57:25.272Z,5.40
2023-01-29T13:00:01.326Z,5.00
2023-01-29T13:02:39.089Z,4.40
2023-01-29T13:05:19.067Z,4.20
2023-01-29T13:07:52.066Z,4.40
2023-01-29T13:10:27.063Z,4.00
2023-01-29T13:13:03.241Z,3.90
2023-01-29T13:15:35.423Z,4.00
2023-01-29T13:18:25.609Z,3.70
2023-01-29T13:20:54.870Z,3.30
2023-01-29T13:23:29.708Z,3.10
2023-01-29T13:25:59.522Z,2.90
2023-01-29T13:28:28.822Z,2.60
2023-01-29T13:31:16.029Z,2.60
2023-01-29T13:33:55.118Z,2.50
2023-01-29T13:36:29.083Z,2.40
2023-01-29T13:39:04.117Z,2.50
2023-01-29T13:41:38.385Z,2.30
2023-01-29T13:44:17.516Z,2.50
2023-01-29T13:46:52.696Z,2.30
2023-01-29T13:49:30.448Z,2.40
2023-01-29T13:51:59.715Z,2.50
2023-01-29T13:54:29.016Z,2.80
2023-01-29T13:57:02.181Z,2.90
2023-01-29T13:59:55.139Z,2.90
2023-01-29T14:02:29.785Z,2.70
2023-01-29T14:05:43.922Z,2.70
2023-01-29T14:08:40.770Z,2.60
2023-01-29T14:11:48.805Z,2.80
2023-01-29T14:15:08.286Z,2.80
2023-01-29T14:17:37.420Z,2.70
2023-01-29T14:20:20.445Z,2.60
2023-01-29T14:22:59.416Z,2.40
2023-01-29T14:25:32.955Z,2.50
2023-01-29T14:28:03.244Z,2.40
2023-01-29T14:30:33.738Z,2.20
2023-01-29T14:33:06.849Z,2.50
2023-01-29T14:35:41.125Z,2.30
2023-01-29T14:38:15.781Z,2.50
2023-01-29T14:40:48.127Z,2.70
2023-01-29T14:43:20.099Z,2.80
2023-01-29T14:45:49.821Z,2.50
2023-01-29T14:48:39.539Z,2.30
2023-01-29T14:51:11.066Z,2.20
2023-01-29T14:53:59.563Z,2.40
2023-01-29T14:56:34.618Z,2.50
2023-01-29T14:59:17.845Z,2.50
2023-01-29T15:01:52.751Z,2.30
2023-01-29T15:04:27.939Z,2.40
2023-01-29T15:07:07.768Z,2.20
2023-01-29T15:09:49.829Z,2.30
2023-01-29T15:12:27.020Z,2.50
2023-01-29T15:15:06.621Z,2.60
2023-01-29T15:17:40.574Z,2.70
2023-01-29T15:20:32.434Z,2.60
2023-01-29T15:23:03.161Z,2.70
2023-01-29T15:25:38.065Z,2.90
2023-01-29T15:28:10.173Z,2.60
2023-01-29T15:30:39.319Z,2.60
2023-01-29T15:33:11.736Z,2.70
2023-01-29T15:35:42.970Z,2.70
2023-01-29T15:38:18.802Z,2.70
2023-01-29T15:40:56.495Z,2.60
2023-01-29T15:43:27.429Z,2.70
2023-01-29T15:45:58.989Z,2.60
2023-01-29T15:48:33.017Z,2.30
2023-01-29T15:51:04.621Z,2.30
2023-01-29T15:53:39.012Z,2.10
2023-01-29T15:56:12.475Z,2.00
2023-01-29T15:58:41.163Z,2.00
2023-01-29T16:01:11.940Z,1.80
2023-01-29T16:03:40.203Z,1.80
2023-01-29T16:06:08.902Z,1.70
2023-01-29T16:08:37.578Z,1.70
2023-01-29T16:11:07.749Z,1.60
2023-01-29T16:13:41.734Z,1.40
2023-01-29T16:16:22.169Z,1.40
2023-01-29T16:19:00.045Z,1.10
2023-01-29T16:21:34.083Z,1.00
2023-01-29T16:24:09.357Z,1.10
2023-01-29T16:26:40.235Z,1.30
2023-01-29T16:29:12.408Z,1.10
2023-01-29T16:31:41.574Z,1.30
2023-01-29T16:34:15.632Z,1.00
2023-01-29T16:36:48.115Z,1.10
2023-01-29T16:39:21.674Z,1.10
2023-01-29T16:42:22.030Z,1.00
2023-01-29T16:44:58.940Z,0.90
2023-01-29T16:47:36.625Z,0.70
2023-01-29T16:50:28.493Z,0.80
2023-01-29T16:52:58.735Z,0.60
2023-01-29T16:55:27.460Z,0.60
2023-01-29T16:57:56.872Z,0.70
2023-01-29T17:00:29.570Z,0.70
2023-01-29T17:03:03.492Z,0.80
2023-01-29T17:05:36.002Z,0.60
2023-01-29T17:08:05.745Z,0.50
2023-01-29T17:10:35.878Z,0.70
2023-01-29T17:13:07.564Z,0.70
2023-01-29T17:15:46.334Z,0.70
2023-01-29T17:18:20.869Z,0.70
2023-01-29T17:20:49.383Z,0.60
2023-01-29T17:23:17.827Z,0.40
2023-01-29T17:25:46.742Z,0.30
2023-01-29T17:28:17.058Z,0.20
2023-01-29T17:31:00.107Z,0.20
2023-01-29T17:33:28.776Z,0.10
2023-01-29T17:35:57.060Z,0.10
2023-01-29T17:38:28.021Z,0.30
2023-01-29T17:40:59.832Z,0.40
2023-01-29T17:43:28.418Z,0.20
2023-01-29T17:45:57.773Z,0.10
2023-01-29T17:48:29.036Z,-0.20
2023-01-29T17:50:59.809Z,-0.20
2023-01-29T17:53:43.306Z,-0.40
2023-01-29T17:56:17.865Z,-0.50
2023-01-29T17:58:46.004Z,-0.40
2023-01-29T18:01:15.608Z,-0.70
2023-01-29T18:03:43.749Z,-0.70
2023-01-29T18:06:19.323Z,-0.60
2023-01-29T18:08:47.252Z,-0.50
2023-01-29T18:11:15.414Z,-0.40
2023-01-29T18:13:43.354Z,-0.30
2023-01-29T18:16:11.457Z,-0.30
2023-01-29T18:18:41.025Z,-0.40
2023-01-29T18:21:09.068Z,-0.40
2023-01-29T18:23:39.813Z,-0.40
2023-01-29T18:26:08.187Z,-0.30
2023-01-29T18:28:36.200Z,-0.50
2023-01-29T18:31:06.107Z,-0.50
2023-01-29T18:33:34.950Z,-0.80
2023-01-29T18:36:06.572Z,-0.70
2023-01-29T18:38:34.549Z,-0.60
2023-01-29T18:41:07.080Z,-0.60
2023-01-29T18:43:35.123Z,-0.70
2023-01-29T18:46:03.144Z,-0.70
2023-01-29T18:48:31.339Z,-0.80
2023-01-29T18:50:59.489Z,-0.80
2023-01-29T18:53:28.810Z,-0.70
2023-01-29T18:55:59.107Z,-0.70
2023-01-29T18:58:35.989Z,-0.60
2023-01-29T19:01:09.068Z,-0.70
2023-01-29T19:03:37.656Z,-0.80
2023-01-29T19:06:08.023Z,-0.70
2023-01-29T19:08:37.765Z,-0.60
2023-01-29T19:11:08.127Z,-0.60
2023-01-29T19:13:38.019Z,-0.50
2023-01-29T19:16:09.249Z,-0.50
2023-01-29T19:18:37.547Z,-0.50
2023-01-29T19:21:10.004Z,-0.50
2023-01-29T19:23:39.474Z,-0.30
2023-01-29T19:26:07.995Z,-0.40
2023-01-29T19:28:35.998Z,-0.50
2023-01-29T19:31:04.384Z,-0.40
2023-01-29T19:33:32.338Z,0.00
2023-01-29T19:36:00.962Z,0.00
2023-01-29T19:38:33.232Z,0.10
2023-01-29T19:41:02.853Z,0.30
2023-01-29T19:43:31.670Z,0.20
2023-01-29T19:46:02.138Z,0.40
2023-01-29T19:48:30.610Z,0.60
2023-01-29T19:51:00.779Z,0.70
2023-01-29T19:53:30.352Z,0.70
2023-01-29T19:56:03.579Z,0.80
2023-01-29T19:58:33.023Z,0.80
2023-01-29T20:01:04.651Z,1.00
2023-01-29T20:03:33.231Z,0.80
2023-01-29T20:06:04.613Z,0.80
2023-01-29T20:08:33.765Z,1.10
2023-01-29T20:11:04.278Z,1.00
2023-01-29T20:13:32.748Z,1.40
2023-01-29T20:16:02.967Z,1.40
2023-01-29T20:18:31.112Z,1.50
2023-01-29T20:21:00.680Z,1.50
2023-01-29T20:23:37.516Z,1.40
2023-01-29T20:26:09.881Z,1.40
2023-01-29T20:28:38.203Z,1.50
2023-01-29T20:31:08.230Z,1.30
2023-01-29T20:33:39.349Z,1.30
2023-01-29T20:36:12.992Z,1.10
2023-01-29T20:38:41.036Z,1.20
2023-01-29T20:41:13.695Z,1.40
2023-01-29T20:43:41.910Z,1.30
2023-01-29T20:46:10.698Z,1.20
2023-01-29T20:48:42.376Z,1.10
2023-01-29T20:51:15.129Z,1.30
2023-01-29T20:53:45.310Z,1.30
2023-01-29T20:56:17.248Z,1.30
2023-01-29T20:58:46.492Z,1.20
2023-01-29T21:01:18.105Z,1.30
2023-01-29T21:03:47.271Z,1.40
2023-01-29T21:06:15.766Z,1.40
2023-01-29T21:08:43.977Z,1.30
2023-01-29T21:11:13.933Z,1.10
2023-01-29T21:13:43.855Z,1.00
2023-01-29T21:16:11.942Z,0.90
2023-01-29T21:18:39.947Z,0.80
2023-01-29T21:21:07.899Z,0.80
2023-01-29T21:23:35.910Z,0.90
2023-01-29T21:26:05.464Z,0.90
2023-01-29T21:28:36.012Z,0.70
2023-01-29T21:31:06.174Z,0.80
2023-01-29T21:33:35.045Z,1.10
2023-01-29T21:36:04.042Z,1.30
2023-01-29T21:38:32.183Z,1.10
2023-01-29T21:41:01.698Z,1.20
2023-01-29T21:43:28.866Z,1.20
2023-01-29T21:45:59.348Z,1.20
2023-01-29T21:48:28.065Z,1.30
2023-01-29T21:50:56.126Z,1.50
2023-01-29T21:53:24.346Z,1.60
2023-01-29T21:55:52.738Z,1.80
2023-01-29T21:58:20.928Z,1.90
2023-01-29T22:00:49.699Z,1.80
2023-01-29T22:03:19.131Z,1.80
2023-01-29T22:05:47.172Z,1.80
2023-01-29T22:08:15.176Z,1.90
2023-01-29T22:10:43.248Z,1.70
2023-01-29T22:13:11.448Z,1.50
2023-01-29T22:15:39.416Z,1.50
2023-01-29T22:18:07.500Z,1.00
2023-01-29T22:20:36.861Z,1.00
2023-01-29T22:23:05.953Z,1.00
2023-01-29T22:25:34.415Z,0.80
2023-01-29T22:28:02.394Z,0.50
2023-01-29T22:30:30.463Z,0.70
2023-01-29T22:32:58.734Z,0.80
2023-01-29T22:35:26.753Z,0.90
2023-01-29T22:37:56.264Z,0.90
2023-01-29T22:40:24.259Z,1.10
2023-01-29T22:42:52.240Z,1.30
2023-01-29T22:45:20.339Z,1.20
2023-01-29T22:47:48.337Z,1.10
2023-01-29T22:50:16.875Z,0.90
2023-01-29T22:52:53.320Z,1.00
2023-01-29T22:55:22.839Z,0.80
2023-01-29T22:57:51.254Z,1.00
2023-01-29T23:00:20.704Z,0.90
2023-01-29T23:02:49.098Z,1.00
2023-01-29T23:05:17.943Z,0.80
2023-01-29T23:07:46.036Z,0.80
2023-01-29T23:10:15.794Z,0.90
2023-01-29T23:12:45.292Z,1.10
2023-01-29T23:15:13.297Z,1.20
2023-01-29T23:17:41.318Z,1.10
2023-01-29T23:20:11.626Z,1.00
2023-01-29T23:22:39.637Z,1.00
2023-01-29T23:25:08.706Z,1.10
2023-01-29T23:27:35.978Z,1.10
2023-01-29T23:30:07.428Z,1.20
2023-01-29T23:32:36.048Z,1.40
2023-01-29T23:35:04.087Z,1.30
2023-01-29T23:37:32.121Z,1.10
2023-01-29T23:40:00.133Z,1.20
2023-01-29T23:42:28.161Z,1.40
2023-01-29T23:44:56.098Z,1.50
2023-01-29T23:47:25.531Z,1.30
2023-01-29T23:49:53.745Z,1.30
2023-01-29T23:52:21.678Z,1.50
2023-01-29T23:54:49.626Z,1.70
2023-01-29T23:57:17.661Z,1.60
2023-01-29T23:59:45.663Z,1.60
